Time;durP1;ratioP1;P1;durP2;ratioP2;P2;SDS_P1;SDS_P2;PMS_P1;PMS_P2;Temp;Humidity;BMP_temperature;BMP_pressure;BME280_temperature;BME280_humidity;BME280_pressure;Samples;Min_cycle;Max_cycle;Signal;HPM_P1;HPM_P2
2024/03/19 00:02:21;;;;;;;13.90;5.45;;;;;;;14.31;84.74;101145.53;5052791;28;20041;-59
2024/03/19 00:04:47;;;;;;;10.50;5.32;;;;;;;14.32;84.87;101150.75;5067233;28;20048;-62
2024/03/19 00:07:23;;;;;;;11.75;5.18;;;;;;;14.38;84.62;101148.63;5054884;28;20059;-61
2024/03/19 00:09:53;;;;;;;12.15;5.28;;;;;;;14.41;84.33;101153.50;5069683;28;20057;-60
2024/03/19 00:12:19;;;;;;;11.10;5.72;;;;;;;14.29;85.07;101145.88;5068535;28;20044;-60
2024/03/19 00:14:48;;;;;;;14.70;6.18;;;;;;;14.39;84.82;101148.31;5049896;28;20041;-61
2024/03/19 00:17:14;;;;;;;15.07;5.65;;;;;;;14.18;85.70;101147.31;5049847;28;20049;-61
2024/03/19 00:19:40;;;;;;;10.75;5.82;;;;;;;14.45;84.62;101146.19;5049412;28;20052;-64
2024/03/19 00:22:07;;;;;;;12.90;5.65;;;;;;;14.34;84.74;101158.72;5048285;28;20049;-60
2024/03/19 00:24:33;;;;;;;10.48;5.43;;;;;;;14.02;86.28;101150.88;5053772;28;20071;-60
2024/03/19 00:27:01;;;;;;;15.93;5.68;;;;;;;14.02;86.76;101157.25;5063818;28;20051;-62
2024/03/19 00:29:27;;;;;;;12.50;5.20;;;;;;;13.89;86.67;101149.94;5037160;28;20428;-60
2024/03/19 00:31:54;;;;;;;13.15;5.22;;;;;;;13.79;87.99;101155.75;5065146;28;20295;-60
2024/03/19 00:34:21;;;;;;;12.43;5.13;;;;;;;13.91;87.91;101155.13;5055324;28;20051;-60
2024/03/19 00:36:49;;;;;;;14.38;5.35;;;;;;;13.96;87.28;101149.44;5050186;28;20049;-60
2024/03/19 00:39:16;;;;;;;13.73;5.43;;;;;;;13.99;87.20;101157.09;5068989;28;20060;-59
2024/03/19 00:41:43;;;;;;;11.10;4.90;;;;;;;13.87;87.48;101159.69;5068865;28;20052;-59
2024/03/19 00:44:09;;;;;;;14.85;5.47;;;;;;;13.85;87.84;101161.97;5056767;28;20064;-59
2024/03/19 00:46:35;;;;;;;11.43;5.00;;;;;;;13.92;87.88;101159.53;5067539;28;20053;-60
2024/03/19 00:49:02;;;;;;;12.52;5.25;;;;;;;14.02;87.24;101150.88;5061120;28;20045;-59
2024/03/19 00:51:29;;;;;;;12.27;5.28;;;;;;;14.14;86.66;101151.88;5032006;28;20044;-58
2024/03/19 00:53:55;;;;;;;11.20;5.55;;;;;;;14.18;85.85;101149.25;5048752;28;20045;-59
2024/03/19 00:56:22;;;;;;;12.20;5.13;;;;;;;14.29;85.46;101150.59;5065315;28;20049;-59
2024/03/19 00:58:48;;;;;;;14.80;5.30;;;;;;;14.25;85.28;101149.56;5066927;28;20048;-60
2024/03/19 01:01:15;;;;;;;9.55;4.57;;;;;;;13.98;85.97;101144.38;5066555;28;20051;-60
2024/03/19 01:03:41;;;;;;;14.40;5.68;;;;;;;13.78;87.29;101151.38;5068205;28;20525;-59
2024/03/19 01:06:08;;;;;;;14.02;5.53;;;;;;;13.82;88.31;101151.53;5066444;28;20060;-59
2024/03/19 01:08:35;;;;;;;14.85;5.55;;;;;;;13.71;88.08;101152.97;5068416;28;20048;-58
2024/03/19 01:11:02;;;;;;;12.20;4.88;;;;;;;13.78;88.27;101156.09;5068281;28;20048;-60
2024/03/19 01:13:31;;;;;;;11.43;4.93;;;;;;;13.74;87.90;101158.69;5048574;28;20052;-59
2024/03/19 01:15:58;;;;;;;10.57;4.85;;;;;;;13.96;87.17;101152.19;5048297;28;20060;-60
2024/03/19 01:18:24;;;;;;;10.63;4.65;;;;;;;13.96;86.98;101141.94;5048153;28;20155;-59
2024/03/19 01:20:52;;;;;;;15.55;5.55;;;;;;;13.93;86.68;101144.56;5060351;28;20424;-61
2024/03/19 01:23:19;;;;;;;11.15;5.35;;;;;;;13.94;86.58;101140.63;5047778;28;20048;-59
2024/03/19 01:25:45;;;;;;;12.13;4.78;;;;;;;13.78;87.25;101143.06;5055088;28;20530;-57
2024/03/19 01:28:13;;;;;;;10.60;4.75;;;;;;;13.82;87.44;101149.59;5066329;28;20056;-57
2024/03/19 01:30:39;;;;;;;10.57;5.05;;;;;;;13.76;87.58;101148.09;5058478;28;20847;-61
2024/03/19 01:33:05;;;;;;;11.52;4.78;;;;;;;13.52;88.93;101140.28;5048242;28;20057;-58
2024/03/19 01:35:32;;;;;;;12.48;5.03;;;;;;;13.50;89.50;101139.78;5060992;28;20059;-59
2024/03/19 01:37:58;;;;;;;12.70;4.80;;;;;;;13.44;89.98;101143.81;5047947;28;20790;-60
2024/03/19 01:40:24;;;;;;;14.05;5.72;;;;;;;13.35;90.27;101145.75;5034560;28;20138;-60
2024/03/19 01:42:51;;;;;;;11.50;4.93;;;;;;;13.25;90.87;101142.47;5067797;28;20051;-60
2024/03/19 01:45:22;;;;;;;11.32;5.05;;;;;;;13.33;91.35;101142.50;5033588;28;20416;-58
2024/03/19 01:47:49;;;;;;;12.55;5.07;;;;;;;13.50;90.17;101142.53;5047542;28;20056;-59
2024/03/19 01:50:15;;;;;;;10.90;4.53;;;;;;;13.40;89.64;101134.56;5048648;28;20065;-59
2024/03/19 01:52:44;;;;;;;10.30;4.85;;;;;;;13.45;90.44;101128.03;5063657;28;20049;-58
2024/03/19 01:55:11;;;;;;;12.40;4.93;;;;;;;13.56;89.48;101130.16;5046493;28;20049;-58
2024/03/19 01:57:46;;;;;;;10.45;4.60;;;;;;;13.34;90.54;101133.06;5050041;28;20048;-60
2024/03/19 02:00:13;;;;;;;14.30;4.90;;;;;;;13.42;90.71;101125.91;5064803;28;20048;-60
2024/03/19 02:02:40;;;;;;;13.63;4.68;;;;;;;13.59;89.77;101131.47;5032854;28;20083;-60
2024/03/19 02:05:07;;;;;;;11.63;5.00;;;;;;;13.39;90.21;101134.84;5057121;28;20061;-59
2024/03/19 02:07:34;;;;;;;13.48;4.70;;;;;;;13.60;89.83;101130.31;5042294;28;20048;-59
2024/03/19 02:10:00;;;;;;;9.77;4.82;;;;;;;13.41;90.01;101130.63;5065985;28;20063;-56
2024/03/19 02:12:28;;;;;;;10.48;4.55;;;;;;;13.28;90.33;101128.81;5049385;28;20056;-58
2024/03/19 02:14:55;;;;;;;13.98;4.63;;;;;;;13.32;90.75;101126.19;5058853;28;20045;-60
2024/03/19 02:17:22;;;;;;;13.20;4.78;;;;;;;13.24;90.33;101132.53;5051139;28;20044;-58
2024/03/19 02:19:49;;;;;;;11.80;4.47;;;;;;;12.97;91.98;101133.53;5052803;28;20068;-61
2024/03/19 02:22:16;;;;;;;17.67;5.38;;;;;;;12.93;92.48;101134.50;5066808;28;20044;-60
2024/03/19 02:24:43;;;;;;;11.30;4.63;;;;;;;12.68;94.06;101133.25;5063902;28;20059;-58
2024/03/19 02:27:10;;;;;;;11.23;5.25;;;;;;;12.59;95.17;101137.91;5058472;28;20658;-57
2024/03/19 02:29:36;;;;;;;12.48;4.53;;;;;;;12.31;97.19;101139.19;5060132;28;20523;-59
2024/03/19 02:32:03;;;;;;;14.13;5.63;;;;;;;12.38;96.78;101134.84;5052793;28;20148;-60
2024/03/19 02:34:30;;;;;;;14.77;4.80;;;;;;;12.75;95.40;101125.31;5037392;28;20049;-60
2024/03/19 02:36:56;;;;;;;13.70;4.82;;;;;;;12.76;93.65;101124.16;5029440;28;20048;-60
2024/03/19 02:39:23;;;;;;;17.33;5.32;;;;;;;13.02;93.35;101121.56;5046816;28;20060;-59
2024/03/19 02:41:51;;;;;;;13.27;4.43;;;;;;;12.92;93.16;101130.91;5060212;28;20057;-59
2024/03/19 02:44:17;;;;;;;14.10;4.82;;;;;;;13.07;92.18;101136.06;5064456;28;20060;-59
2024/03/19 02:46:43;;;;;;;15.27;5.30;;;;;;;13.17;91.23;101121.94;5048628;28;20062;-58
2024/03/19 02:49:09;;;;;;;9.32;4.35;;;;;;;13.07;91.66;101130.53;5047438;28;20497;-61
2024/03/19 02:51:36;;;;;;;13.13;4.95;;;;;;;13.03;91.42;101129.53;5056626;28;20060;-61
2024/03/19 02:54:02;;;;;;;13.68;5.00;;;;;;;13.10;90.91;101131.84;5049282;28;20060;-58
2024/03/19 02:56:29;;;;;;;11.27;4.55;;;;;;;13.19;90.80;101136.28;5066508;28;20048;-59
2024/03/19 02:58:56;;;;;;;11.73;4.70;;;;;;;12.77;91.84;101138.81;5043284;28;20534;-60
2024/03/19 03:01:22;;;;;;;10.82;4.95;;;;;;;12.76;92.88;101131.66;5046381;28;20052;-60
2024/03/19 03:03:49;;;;;;;14.50;4.90;;;;;;;12.64;93.23;101134.22;5045755;28;20057;-58
2024/03/19 03:06:15;;;;;;;14.98;5.35;;;;;;;12.62;93.91;101126.25;5062948;28;20053;-61
2024/03/19 03:08:41;;;;;;;10.45;4.43;;;;;;;12.66;94.14;101138.28;5046256;28;20049;-59
2024/03/19 03:11:08;;;;;;;10.80;4.78;;;;;;;12.81;93.51;101134.28;5068183;28;20045;-58
2024/03/19 03:13:34;;;;;;;14.88;4.70;;;;;;;12.89;92.96;101131.56;5063811;28;20048;-60
2024/03/19 03:16:00;;;;;;;14.07;4.78;;;;;;;13.09;92.28;101135.75;5050068;28;20052;-57
2024/03/19 03:18:26;;;;;;;14.55;4.68;;;;;;;13.20;91.10;101129.59;5058012;28;20049;-59
2024/03/19 03:20:53;;;;;;;13.05;5.60;;;;;;;12.86;91.42;101132.22;5056651;28;20057;-57
2024/03/19 03:23:19;;;;;;;12.18;5.18;;;;;;;12.85;92.64;101135.31;5054924;28;20669;-60
2024/03/19 03:25:46;;;;;;;10.60;4.63;;;;;;;12.99;91.61;101127.72;5038983;28;20726;-59
2024/03/19 03:28:13;;;;;;;12.43;4.55;;;;;;;12.95;91.89;101132.25;5059572;28;20047;-59
2024/03/19 03:30:41;;;;;;;15.63;4.85;;;;;;;12.77;92.09;101131.34;5057422;28;20060;-59
2024/03/19 03:33:07;;;;;;;10.82;4.60;;;;;;;13.21;90.79;101124.88;5058880;28;20048;-58
2024/03/19 03:35:33;;;;;;;15.82;5.25;;;;;;;13.20;89.95;101129.59;5064955;28;20067;-60
2024/03/19 03:38:00;;;;;;;17.77;5.13;;;;;;;13.12;90.41;101130.41;5050861;28;20053;-59
2024/03/19 03:40:27;;;;;;;19.55;5.47;;;;;;;12.89;90.91;101123.28;5049460;28;20062;-56
2024/03/19 03:42:53;;;;;;;13.50;5.45;;;;;;;13.02;91.10;101124.34;5048318;28;20467;-59
2024/03/19 03:45:20;;;;;;;13.18;4.95;;;;;;;12.89;92.03;101134.34;5064560;28;20075;-56
2024/03/19 03:47:47;;;;;;;13.93;4.90;;;;;;;12.96;91.59;101134.69;5060758;28;20119;-57
2024/03/19 03:50:14;;;;;;;12.63;4.65;;;;;;;13.13;90.64;101136.72;5050427;28;20048;-60
2024/03/19 03:52:41;;;;;;;17.40;5.38;;;;;;;12.90;91.77;101135.16;5046042;28;20901;-60
2024/03/19 03:55:09;;;;;;;14.77;4.85;;;;;;;13.05;91.38;101132.81;5012797;28;20052;-57
2024/03/19 03:57:37;;;;;;;13.50;5.13;;;;;;;12.86;91.91;101136.91;5012809;28;20404;-57
2024/03/19 04:00:08;;;;;;;13.45;5.10;;;;;;;13.00;91.93;101126.56;5055843;28;20055;-58
2024/03/19 04:02:41;;;;;;;13.57;5.03;;;;;;;13.07;91.21;101135.25;5065693;28;20586;-58
2024/03/19 04:05:11;;;;;;;13.45;4.85;;;;;;;13.03;91.16;101128.72;5062057;28;20056;-56
2024/03/19 04:07:39;;;;;;;17.88;5.60;;;;;;;13.09;91.49;101130.22;5065183;28;20063;-59
2024/03/19 04:10:09;;;;;;;16.17;5.35;;;;;;;12.96;91.34;101128.34;5060504;28;20055;-58
2024/03/19 04:12:36;;;;;;;12.75;5.00;;;;;;;12.84;92.52;101128.94;5058983;28;20057;-60
2024/03/19 04:15:03;;;;;;;14.80;4.80;;;;;;;13.08;91.57;101120.28;5064767;28;20192;-58
2024/03/19 04:17:30;;;;;;;11.98;4.97;;;;;;;13.13;90.64;101133.94;5046058;28;20064;-56
2024/03/19 04:19:56;;;;;;;12.07;5.15;;;;;;;13.10;90.67;101129.91;5028078;28;20057;-58
2024/03/19 04:22:22;;;;;;;13.18;5.55;;;;;;;12.64;92.67;101135.00;5042186;28;20049;-59
2024/03/19 04:24:49;;;;;;;14.55;5.45;;;;;;;12.53;94.64;101128.13;5053714;28;20049;-58
2024/03/19 04:27:15;;;;;;;16.38;5.45;;;;;;;12.61;94.09;101130.13;5047638;28;20744;-58
2024/03/19 04:29:41;;;;;;;14.27;5.47;;;;;;;12.82;93.56;101122.09;5045549;28;20059;-60
2024/03/19 04:32:08;;;;;;;14.38;5.72;;;;;;;12.90;92.83;101130.41;5051288;28;20060;-59
2024/03/19 04:34:34;;;;;;;16.90;5.35;;;;;;;12.97;92.33;101129.97;5061873;28;20045;-59
2024/03/19 04:37:00;;;;;;;13.85;5.10;;;;;;;12.62;93.50;101126.25;5062755;28;20048;-59
2024/03/19 04:39:27;;;;;;;20.23;6.10;;;;;;;12.60;94.87;101131.25;5045604;28;20065;-56
2024/03/19 04:41:53;;;;;;;16.58;5.50;;;;;;;12.86;93.84;101123.91;5044855;28;20064;-57
2024/03/19 04:44:19;;;;;;;18.83;6.13;;;;;;;12.86;92.68;101140.50;5058702;28;20052;-58
2024/03/19 04:46:46;;;;;;;16.33;5.75;;;;;;;12.59;93.56;101137.13;5033763;28;20048;-55
2024/03/19 04:49:12;;;;;;;18.73;5.18;;;;;;;12.65;94.42;101141.34;5061450;28;20056;-56
2024/03/19 04:51:39;;;;;;;11.32;5.10;;;;;;;12.70;94.17;101150.34;5068826;28;20057;-58
2024/03/19 04:54:05;;;;;;;17.23;5.72;;;;;;;12.72;93.52;101145.31;5055006;28;20040;-60
2024/03/19 04:56:32;;;;;;;19.55;5.68;;;;;;;12.88;93.07;101140.19;5068627;28;20051;-60
2024/03/19 04:58:58;;;;;;;10.75;5.05;;;;;;;12.92;92.57;101144.75;5067099;28;20061;-58
2024/03/19 05:01:27;;;;;;;16.38;6.10;;;;;;;12.82;92.51;101145.03;5048582;28;20053;-58
2024/03/19 05:03:54;;;;;;;15.23;5.63;;;;;;;12.66;93.35;101151.28;5038070;28;20051;-59
2024/03/19 05:06:21;;;;;;;14.13;5.40;;;;;;;12.68;93.62;101147.06;5073656;28;20045;-59
2024/03/19 05:08:47;;;;;;;16.17;5.60;;;;;;;12.76;92.89;101145.50;5049221;28;20044;-58
2024/03/19 05:11:14;;;;;;;17.95;5.88;;;;;;;12.91;92.67;101153.34;5031799;28;20057;-57
2024/03/19 05:13:40;;;;;;;15.73;6.15;;;;;;;12.77;92.21;101156.22;5049788;28;20051;-57
2024/03/19 05:16:07;;;;;;;17.00;6.18;;;;;;;12.78;92.25;101148.75;5067720;28;20052;-59
2024/03/19 05:18:33;;;;;;;12.63;5.63;;;;;;;12.86;92.42;101151.56;5067667;28;20056;-56
2024/03/19 05:21:00;;;;;;;14.27;5.65;;;;;;;12.93;92.06;101153.88;5068475;28;20049;-57
2024/03/19 05:23:26;;;;;;;13.70;6.10;;;;;;;12.75;91.92;101152.13;5032159;28;20055;-62
2024/03/19 05:25:52;;;;;;;18.02;6.20;;;;;;;12.54;93.65;101160.16;5048361;28;20055;-59
2024/03/19 05:28:18;;;;;;;19.67;6.35;;;;;;;12.75;93.42;101157.66;5033599;28;20055;-59
2024/03/19 05:30:45;;;;;;;14.27;5.53;;;;;;;12.57;93.41;101167.81;5043284;28;20055;-59
2024/03/19 05:33:11;;;;;;;15.25;6.15;;;;;;;12.24;95.23;101156.22;5067112;28;20049;-59
2024/03/19 05:35:37;;;;;;;16.23;5.97;;;;;;;12.45;95.48;101167.56;5067726;28;20064;-59
2024/03/19 05:38:04;;;;;;;12.95;5.80;;;;;;;12.52;94.13;101164.38;5062853;28;20049;-58
2024/03/19 05:40:31;;;;;;;16.80;6.68;;;;;;;12.33;95.34;101156.28;5051461;28;20068;-61
2024/03/19 05:42:57;;;;;;;13.85;5.75;;;;;;;12.50;95.16;101164.66;5064119;28;20079;-60
2024/03/19 05:45:23;;;;;;;19.02;6.10;;;;;;;12.64;94.34;101159.88;5047513;28;20053;-60
2024/03/19 05:47:50;;;;;;;14.80;6.00;;;;;;;12.81;93.19;101160.00;5047288;28;20164;-60
2024/03/19 05:50:17;;;;;;;13.82;6.47;;;;;;;12.67;92.85;101166.72;5061283;28;20049;-59
2024/03/19 05:52:43;;;;;;;14.18;6.22;;;;;;;12.74;92.09;101167.94;5039356;28;20056;-59
2024/03/19 05:55:10;;;;;;;20.60;7.65;;;;;;;12.46;93.45;101175.53;5067073;28;20052;-58
2024/03/19 05:57:36;;;;;;;21.55;7.10;;;;;;;12.46;94.57;101181.06;5062178;28;20056;-57
2024/03/19 06:00:06;;;;;;;18.75;7.82;;;;;;;12.42;94.07;101187.53;5058558;28;20633;-60
2024/03/19 06:02:33;;;;;;;19.80;7.30;;;;;;;12.38;94.95;101192.06;5053452;28;20049;-58
2024/03/19 06:05:00;;;;;;;22.25;7.03;;;;;;;12.65;93.93;101191.09;5047247;28;20056;-58
2024/03/19 06:07:26;;;;;;;19.08;7.38;;;;;;;12.50;93.52;101189.53;5018379;28;20051;-56
2024/03/19 06:09:52;;;;;;;18.35;7.85;;;;;;;12.01;96.67;101195.19;5051308;28;20063;-57
2024/03/19 06:12:19;;;;;;;19.58;7.22;;;;;;;12.03;97.42;101190.97;5061242;28;20846;-57
2024/03/19 06:14:45;;;;;;;14.90;7.47;;;;;;;12.08;97.38;101196.34;5046508;28;20052;-57
2024/03/19 06:17:11;;;;;;;16.50;7.30;;;;;;;12.24;96.77;101194.06;5052269;28;20471;-57
2024/03/19 06:19:38;;;;;;;25.55;7.97;;;;;;;12.28;96.61;101195.91;5050068;28;20056;-60
2024/03/19 06:22:04;;;;;;;20.77;7.15;;;;;;;12.44;95.93;101193.56;5049323;28;20052;-61
2024/03/19 06:24:30;;;;;;;14.25;6.47;;;;;;;12.50;95.80;101185.97;5053772;28;20477;-59
2024/03/19 06:26:57;;;;;;;19.33;7.53;;;;;;;12.75;94.27;101183.38;5053353;28;20040;-57
2024/03/19 06:29:23;;;;;;;20.48;7.03;;;;;;;12.71;93.65;101192.63;5055702;28;20147;-58
2024/03/19 06:31:49;;;;;;;20.63;7.75;;;;;;;12.75;93.28;101197.19;5052448;28;20057;-59
2024/03/19 06:34:16;;;;;;;15.63;6.20;;;;;;;12.95;92.78;101196.66;5055033;28;20063;-58
2024/03/19 06:36:42;;;;;;;15.00;6.43;;;;;;;12.85;92.01;101193.34;5046687;28;20048;-59
2024/03/19 06:39:08;;;;;;;14.30;6.13;;;;;;;12.67;93.03;101192.44;5063291;28;20261;-60
2024/03/19 06:41:35;;;;;;;20.75;6.82;;;;;;;12.79;93.23;101202.91;5047825;28;20053;-57
2024/03/19 06:44:01;;;;;;;19.75;6.93;;;;;;;12.98;92.45;101198.78;5057749;28;20048;-59
2024/03/19 06:46:27;;;;;;;21.88;7.25;;;;;;;13.04;91.55;101205.81;5066482;28;20158;-59
2024/03/19 06:48:54;;;;;;;18.75;6.68;;;;;;;13.10;91.37;101200.97;5036302;28;20099;-60
2024/03/19 06:51:20;;;;;;;17.10;6.68;;;;;;;13.02;91.75;101194.25;5046960;28;20052;-58
2024/03/19 06:53:46;;;;;;;18.20;6.82;;;;;;;13.15;91.46;101192.53;5046288;28;20048;-60
2024/03/19 06:56:13;;;;;;;17.80;6.50;;;;;;;13.24;90.57;101198.94;5038127;28;20059;-61
2024/03/19 06:58:42;;;;;;;20.83;7.88;;;;;;;13.19;90.07;101199.91;5055479;28;20068;-59
2024/03/19 07:01:09;;;;;;;20.50;7.70;;;;;;;13.14;90.60;101201.97;5049563;28;20048;-61
2024/03/19 07:03:35;;;;;;;19.20;6.55;;;;;;;13.30;89.88;101204.00;5037715;28;20076;-57
2024/03/19 07:06:01;;;;;;;26.33;7.40;;;;;;;13.23;90.27;101214.69;5059118;28;20045;-59
2024/03/19 07:08:29;;;;;;;17.25;7.25;;;;;;;13.11;90.68;101220.03;5055577;28;20091;-58
2024/03/19 07:10:57;;;;;;;18.58;7.35;;;;;;;13.19;90.97;101215.66;5053388;28;20044;-59
2024/03/19 07:13:25;;;;;;;16.60;7.60;;;;;;;13.16;90.61;101206.03;5054646;28;20531;-58
2024/03/19 07:15:51;;;;;;;18.60;6.60;;;;;;;13.19;90.25;101208.19;5058656;28;20041;-54
2024/03/19 07:18:20;;;;;;;14.23;6.20;;;;;;;13.00;90.64;101209.53;5057012;28;20391;-57
2024/03/19 07:20:46;;;;;;;18.50;6.60;;;;;;;12.98;90.77;101217.31;5054747;28;20048;-61
2024/03/19 07:23:13;;;;;;;19.60;7.32;;;;;;;13.11;91.17;101217.25;5057891;28;20053;-57
2024/03/19 07:25:39;;;;;;;20.60;7.60;;;;;;;13.01;90.95;101214.75;5051280;28;20056;-57
2024/03/19 07:28:06;;;;;;;15.23;6.70;;;;;;;13.04;90.13;101213.31;5052997;28;20041;-61
2024/03/19 07:30:32;;;;;;;20.10;7.57;;;;;;;13.10;89.95;101217.56;5057245;28;20061;-59
2024/03/19 07:32:59;;;;;;;18.05;7.20;;;;;;;13.08;89.58;101226.19;5029360;28;20052;-60
2024/03/19 07:35:25;;;;;;;18.83;7.15;;;;;;;13.05;89.96;101223.25;5044808;28;20056;-63
2024/03/19 07:37:52;;;;;;;22.10;6.80;;;;;;;13.04;90.76;101230.72;5061720;28;20055;-61
2024/03/19 07:40:21;;;;;;;20.77;7.70;;;;;;;13.12;89.44;101232.72;5047026;28;20080;-61
2024/03/19 07:42:51;;;;;;;18.42;6.97;;;;;;;13.06;90.28;101239.53;5060892;28;20507;-59
2024/03/19 07:45:17;;;;;;;20.45;7.15;;;;;;;13.07;89.21;101248.63;5048197;28;20068;-60
2024/03/19 07:47:44;;;;;;;15.95;6.80;;;;;;;13.17;89.01;101253.91;5033820;28;20064;-60
2024/03/19 07:50:13;;;;;;;16.30;6.80;;;;;;;12.90;90.13;101254.84;5045718;28;20083;-59
2024/03/19 07:52:40;;;;;;;12.88;6.00;;;;;;;12.97;90.83;101257.19;5062288;28;20491;-59
2024/03/19 07:55:06;;;;;;;21.05;6.53;;;;;;;13.20;89.35;101254.06;5045523;28;20045;-61
2024/03/19 07:57:32;;;;;;;17.55;6.60;;;;;;;13.28;87.80;101258.84;5034226;28;20060;-61
2024/03/19 08:00:09;;;;;;;24.48;5.90;;;;;;;13.32;87.62;101261.78;5045574;28;20607;-61
2024/03/19 08:02:39;;;;;;;13.10;5.88;;;;;;;13.49;86.98;101276.50;5064308;28;20055;-60
2024/03/19 08:05:07;;;;;;;15.25;5.60;;;;;;;13.54;86.23;101272.78;5065178;28;20048;-60
2024/03/19 08:07:37;;;;;;;18.08;4.95;;;;;;;12.98;85.58;101267.09;5065442;28;20060;-62
2024/03/19 08:10:07;;;;;;;17.42;4.85;;;;;;;13.00;86.76;101282.25;5065252;28;20056;-61
2024/03/19 08:12:34;;;;;;;18.95;4.90;;;;;;;12.96;86.13;101286.78;5032067;28;20053;-58
2024/03/19 08:15:02;;;;;;;14.48;3.92;;;;;;;12.97;86.67;101290.38;5047096;28;20048;-62
2024/03/19 08:17:30;;;;;;;13.68;3.95;;;;;;;12.84;86.01;101281.00;5045566;28;20057;-60
2024/03/19 08:19:58;;;;;;;12.00;3.50;;;;;;;12.63;85.36;101290.09;5045545;28;20057;-61
2024/03/19 08:22:24;;;;;;;15.07;3.95;;;;;;;12.73;85.99;101282.38;5047452;28;20719;-61
2024/03/19 08:24:52;;;;;;;39.42;5.45;;;;;;;13.18;84.42;101294.28;5032529;28;20063;-61
2024/03/19 08:27:20;;;;;;;30.17;4.68;;;;;;;13.26;83.13;101297.09;5048409;28;20104;-60
2024/03/19 08:29:47;;;;;;;15.35;3.50;;;;;;;13.11;83.33;101300.22;5035573;28;20056;-60
2024/03/19 08:32:13;;;;;;;14.10;3.72;;;;;;;13.16;83.60;101307.59;5069342;28;20155;-59
2024/03/19 08:34:39;;;;;;;14.10;3.72;;;;;;;13.19;83.31;101305.00;5068213;28;20056;-60
2024/03/19 08:37:06;;;;;;;15.50;3.40;;;;;;;13.30;83.37;101300.81;5069436;28;20727;-60
2024/03/19 08:39:33;;;;;;;19.67;3.92;;;;;;;13.16;83.65;101302.84;5068856;28;20048;-59
2024/03/19 08:42:00;;;;;;;31.45;4.18;;;;;;;12.70;84.81;101307.88;5052342;28;20065;-60
2024/03/19 08:44:26;;;;;;;15.73;3.97;;;;;;;12.62;85.63;101305.88;5068557;28;20052;-60
2024/03/19 08:46:54;;;;;;;26.25;4.88;;;;;;;13.00;85.19;101301.63;5069330;28;20063;-60
2024/03/19 08:49:20;;;;;;;22.17;3.55;;;;;;;13.32;83.20;101309.63;5068815;28;20057;-59
2024/03/19 08:51:47;;;;;;;12.25;2.60;;;;;;;13.44;80.77;101318.16;5049426;28;20055;-60
2024/03/19 08:54:13;;;;;;;18.58;2.90;;;;;;;13.30;80.48;101320.19;5068520;28;20048;-62
2024/03/19 08:56:42;;;;;;;8.75;3.17;;;;;;;13.03;81.52;101323.13;5069054;28;20063;-60
2024/03/19 08:59:08;;;;;;;12.52;2.85;;;;;;;13.09;83.13;101321.84;5068830;28;20044;-61
2024/03/19 09:01:34;;;;;;;10.65;3.17;;;;;;;13.30;81.47;101317.44;5035029;28;20065;-61
2024/03/19 09:04:03;;;;;;;9.98;2.33;;;;;;;12.91;83.00;101331.16;5068264;28;20041;-58
2024/03/19 09:06:31;;;;;;;14.85;3.30;;;;;;;13.00;82.12;101328.44;5068522;28;20082;-59
2024/03/19 09:08:58;;;;;;;10.90;2.92;;;;;;;12.91;83.84;101331.16;5068431;28;20052;-60
2024/03/19 09:11:31;;;;;;;15.80;3.97;;;;;;;13.09;83.32;101326.59;5068884;28;20051;-56
2024/03/19 09:13:58;;;;;;;37.30;4.30;;;;;;;13.41;81.98;101334.56;5068292;28;20522;-56
2024/03/19 09:16:25;;;;;;;14.45;3.45;;;;;;;13.36;80.84;101331.94;5068153;28;20060;-55
2024/03/19 09:18:51;;;;;;;19.75;3.70;;;;;;;13.22;81.92;101336.75;5068365;28;20857;-55
2024/03/19 09:21:18;;;;;;;14.38;3.33;;;;;;;13.31;81.98;101329.31;5067889;28;20060;-54
2024/03/19 09:23:45;;;;;;;16.23;3.22;;;;;;;13.55;80.58;101322.28;5048974;28;20120;-57
2024/03/19 09:26:12;;;;;;;21.20;4.10;;;;;;;13.96;79.65;101316.44;5048465;28;20056;-57
2024/03/19 09:28:38;;;;;;;14.20;3.55;;;;;;;13.51;79.74;101326.03;5031423;28;20807;-56
2024/03/19 09:31:04;;;;;;;13.70;3.63;;;;;;;13.66;80.22;101322.81;5061896;28;20057;-57
2024/03/19 09:33:31;;;;;;;12.70;2.92;;;;;;;13.74;78.24;101324.81;5067260;28;20059;-60
2024/03/19 09:35:57;;;;;;;14.48;3.17;;;;;;;13.79;77.80;101323.88;5067596;28;20051;-58
2024/03/19 09:38:23;;;;;;;9.88;3.38;;;;;;;13.73;78.37;101330.66;5039729;28;20064;-58
2024/03/19 09:40:54;;;;;;;12.52;3.03;;;;;;;13.42;77.97;101322.41;5054006;28;20048;-56
2024/03/19 09:43:23;;;;;;;;;;;;;;;13.44;77.65;101315.38;5055528;28;20055;-56
2024/03/19 09:45:50;;;;;;;13.77;3.50;;;;;;;13.34;79.35;101317.59;5052524;28;19924;-54
2024/03/19 09:48:17;;;;;;;7.88;3.08;;;;;;;13.70;78.20;101323.84;5062649;28;20294;-54
2024/03/19 09:50:44;;;;;;;16.38;2.83;;;;;;;13.68;77.61;101325.28;5016777;28;20702;-57
2024/03/19 09:53:24;;;;;;;13.82;3.22;;;;;;;13.89;75.88;101324.41;5052239;28;20045;-56
2024/03/19 09:55:52;;;;;;;10.63;2.80;;;;;;;13.99;74.86;101326.03;5057547;28;20714;-55
2024/03/19 09:58:22;;;;;;;9.93;2.50;;;;;;;13.79;75.33;101321.88;5041736;28;20052;-57
2024/03/19 10:00:51;;;;;;;9.70;1.70;;;;;;;13.73;73.95;101331.50;5068261;28;20048;-57
2024/03/19 10:03:17;;;;;;;8.13;2.13;;;;;;;13.93;72.99;101330.09;5067428;28;20048;-55
2024/03/19 10:05:44;;;;;;;7.40;2.53;;;;;;;13.78;74.53;101334.13;5059937;28;20044;-57
2024/03/19 10:08:12;;;;;;;9.80;2.47;;;;;;;14.10;73.91;101319.91;5051783;28;20045;-57
2024/03/19 10:10:39;;;;;;;6.88;2.47;;;;;;;13.77;74.22;101312.28;5034370;28;20061;-56
2024/03/19 10:13:06;;;;;;;11.23;2.92;;;;;;;13.84;74.56;101324.53;5066474;28;20052;-55
2024/03/19 10:15:33;;;;;;;13.98;2.60;;;;;;;14.40;72.86;101307.91;5053856;28;20234;-58
2024/03/19 10:17:59;;;;;;;13.95;5.18;;;;;;;14.22;72.67;101302.63;5065533;28;20061;-56
2024/03/19 10:20:26;;;;;;;12.15;3.97;;;;;;;13.93;74.53;101313.50;5031705;28;20044;-55
2024/03/19 10:22:53;;;;;;;12.50;3.17;;;;;;;14.49;73.33;101307.91;5050975;28;20041;-57
2024/03/19 10:25:19;;;;;;;11.30;2.63;;;;;;;14.33;72.60;101302.03;5050101;28;20060;-57
2024/03/19 10:27:47;;;;;;;13.57;2.65;;;;;;;14.26;72.91;101301.69;5048711;28;20064;-56
2024/03/19 10:30:22;;;;;;;10.90;2.58;;;;;;;14.26;72.28;101295.34;5055691;28;20052;-57
2024/03/19 10:32:49;;;;;;;11.60;2.75;;;;;;;14.23;72.46;101301.47;5041569;28;20053;-54
2024/03/19 10:35:18;;;;;;;11.40;2.88;;;;;;;14.62;72.33;101299.44;5045768;28;20041;-56
2024/03/19 10:37:52;;;;;;;10.02;3.15;;;;;;;15.32;69.80;101287.09;5037667;28;20048;-56
2024/03/19 10:40:21;;;;;;;10.30;3.40;;;;;;;15.52;68.39;101287.22;5047878;28;20056;-57
2024/03/19 10:42:48;;;;;;;13.60;3.20;;;;;;;15.41;68.70;101280.38;5054682;28;20029;-55
2024/03/19 10:45:25;;;;;;;11.18;2.90;;;;;;;15.02;68.60;101279.81;5031895;28;20405;-59
2024/03/19 10:47:52;;;;;;;10.55;2.85;;;;;;;14.66;71.25;101292.09;5056859;28;20059;-54
2024/03/19 10:50:19;;;;;;;11.02;2.47;;;;;;;14.76;72.01;101276.25;5044038;28;20045;-53
2024/03/19 10:53:01;;;;;;;12.88;2.53;;;;;;;15.30;69.46;101275.50;5049044;28;20059;-58
2024/03/19 10:55:29;;;;;;;13.52;3.28;;;;;;;15.23;68.86;101275.19;5067856;28;20044;-57
2024/03/19 10:58:00;;;;;;;15.38;2.90;;;;;;;15.65;67.46;101272.31;5050464;28;20056;-57
2024/03/19 11:00:27;;;;;;;9.63;2.35;;;;;;;15.94;66.21;101276.22;5069156;28;20048;-56
2024/03/19 11:02:58;;;;;;;11.32;2.42;;;;;;;15.80;66.15;101279.25;5044047;28;20075;-54
2024/03/19 11:05:26;;;;;;;9.02;3.17;;;;;;;16.37;63.71;101272.00;5047792;28;20052;-53
2024/03/19 11:07:54;;;;;;;7.80;3.00;;;;;;;16.19;63.74;101281.63;5052571;28;20052;-58
2024/03/19 11:10:36;;;;;;;13.73;2.58;;;;;;;16.06;64.34;101276.31;5044315;28;20048;-61
2024/03/19 11:13:04;;;;;;;12.32;3.22;;;;;;;16.05;64.24;101266.34;5053642;28;20396;-56
2024/03/19 11:15:31;;;;;;;10.35;2.53;;;;;;;16.02;64.68;101272.59;5041453;28;20059;-57
2024/03/19 11:17:58;;;;;;;10.50;3.08;;;;;;;16.20;64.32;101274.09;5047986;28;20146;-57